sensor_id;sensor_type;location;lat;lon;timestamp;temperature;humidity
70460;DHT22;57920;54.796;9.430;2022-09-29T00:01:37;19.10;52.70
70460;DHT22;57920;54.796;9.430;2022-09-29T00:04:03;19.10;52.60
70460;DHT22;57920;54.796;9.430;2022-09-29T00:06:29;19.10;52.50
70460;DHT22;57920;54.796;9.430;2022-09-29T00:08:57;19.10;52.50
70460;DHT22;57920;54.796;9.430;2022-09-29T00:11:22;19.10;52.50
70460;DHT22;57920;54.796;9.430;2022-09-29T00:13:48;19.10;52.50
70460;DHT22;57920;54.796;9.430;2022-09-29T00:16:14;19.10;52.40
70460;DHT22;57920;54.796;9.430;2022-09-29T00:18:40;19.10;52.40
70460;DHT22;57920;54.796;9.430;2022-09-29T00:21:12;19.10;52.50
70460;DHT22;57920;54.796;9.430;2022-09-29T00:23:39;19.10;52.50
70460;DHT22;57920;54.796;9.430;2022-09-29T00:26:16;19.10;52.50
70460;DHT22;57920;54.796;9.430;2022-09-29T00:28:51;19.10;52.50
70460;DHT22;57920;54.796;9.430;2022-09-29T00:31:18;19.00;52.60
70460;DHT22;57920;54.796;9.430;2022-09-29T00:33:44;19.00;52.70
70460;DHT22;57920;54.796;9.430;2022-09-29T00:36:15;19.00;52.70
70460;DHT22;57920;54.796;9.430;2022-09-29T00:38:41;19.00;52.70
70460;DHT22;57920;54.796;9.430;2022-09-29T00:41:22;19.00;52.70
70460;DHT22;57920;54.796;9.430;2022-09-29T00:46:48;19.00;52.80
70460;DHT22;57920;54.796;9.430;2022-09-29T00:51:47;18.90;52.70
70460;DHT22;57920;54.796;9.430;2022-09-29T00:54:16;18.90;52.80
70460;DHT22;57920;54.796;9.430;2022-09-29T00:56:43;18.90;52.80
70460;DHT22;57920;54.796;9.430;2022-09-29T00:59:13;18.90;52.80
70460;DHT22;57920;54.796;9.430;2022-09-29T01:01:41;18.90;52.80
70460;DHT22;57920;54.796;9.430;2022-09-29T01:04:15;18.90;52.80
70460;DHT22;57920;54.796;9.430;2022-09-29T01:06:50;19.00;52.80
70460;DHT22;57920;54.796;9.430;2022-09-29T01:09:19;19.00;52.70
70460;DHT22;57920;54.796;9.430;2022-09-29T01:11:45;19.00;52.60
70460;DHT22;57920;54.796;9.430;2022-09-29T01:14:12;19.00;52.50
70460;DHT22;57920;54.796;9.430;2022-09-29T01:16:38;19.10;52.50
70460;DHT22;57920;54.796;9.430;2022-09-29T01:19:11;19.10;52.50
70460;DHT22;57920;54.796;9.430;2022-09-29T01:21:56;19.10;52.40
70460;DHT22;57920;54.796;9.430;2022-09-29T01:27:18;19.10;52.30
70460;DHT22;57920;54.796;9.430;2022-09-29T01:30:06;19.20;52.30
70460;DHT22;57920;54.796;9.430;2022-09-29T01:33:07;19.10;52.30
70460;DHT22;57920;54.796;9.430;2022-09-29T01:35:39;19.10;52.30
70460;DHT22;57920;54.796;9.430;2022-09-29T01:43:38;19.00;52.50
70460;DHT22;57920;54.796;9.430;2022-09-29T01:46:13;19.10;52.50
70460;DHT22;57920;54.796;9.430;2022-09-29T01:48:45;19.00;52.50
70460;DHT22;57920;54.796;9.430;2022-09-29T01:51:16;19.00;52.60
70460;DHT22;57920;54.796;9.430;2022-09-29T01:53:48;19.00;52.60
70460;DHT22;57920;54.796;9.430;2022-09-29T02:02:13;19.00;52.70
70460;DHT22;57920;54.796;9.430;2022-09-29T02:04:53;18.90;52.70
70460;DHT22;57920;54.796;9.430;2022-09-29T02:07:26;18.90;52.70
70460;DHT22;57920;54.796;9.430;2022-09-29T02:09:59;18.90;52.80
70460;DHT22;57920;54.796;9.430;2022-09-29T02:12:28;18.90;52.80
70460;DHT22;57920;54.796;9.430;2022-09-29T02:14:57;18.90;52.80
70460;DHT22;57920;54.796;9.430;2022-09-29T02:17:30;18.90;52.80
70460;DHT22;57920;54.796;9.430;2022-09-29T02:19:58;18.90;52.80
70460;DHT22;57920;54.796;9.430;2022-09-29T02:22:23;19.00;52.80
70460;DHT22;57920;54.796;9.430;2022-09-29T02:24:52;19.00;52.70
70460;DHT22;57920;54.796;9.430;2022-09-29T02:27:21;19.00;52.60
70460;DHT22;57920;54.796;9.430;2022-09-29T02:29:47;19.00;52.60
70460;DHT22;57920;54.796;9.430;2022-09-29T02:32:13;19.00;52.50
70460;DHT22;57920;54.796;9.430;2022-09-29T02:34:41;19.10;52.50
70460;DHT22;57920;54.796;9.430;2022-09-29T02:51:15;19.10;52.30
70460;DHT22;57920;54.796;9.430;2022-09-29T02:56:51;19.10;52.40
70460;DHT22;57920;54.796;9.430;2022-09-29T02:59:48;19.10;52.50
70460;DHT22;57920;54.796;9.430;2022-09-29T03:02:15;19.00;52.50
70460;DHT22;57920;54.796;9.430;2022-09-29T03:04:47;19.00;52.60
70460;DHT22;57920;54.796;9.430;2022-09-29T03:07:12;19.00;52.70
70460;DHT22;57920;54.796;9.430;2022-09-29T03:09:38;19.00;52.70
70460;DHT22;57920;54.796;9.430;2022-09-29T03:12:03;18.90;52.70
70460;DHT22;57920;54.796;9.430;2022-09-29T03:14:29;19.00;52.70
70460;DHT22;57920;54.796;9.430;2022-09-29T03:16:54;19.00;52.70
70460;DHT22;57920;54.796;9.430;2022-09-29T03:19:20;18.90;52.80
70460;DHT22;57920;54.796;9.430;2022-09-29T03:21:46;18.90;52.80
70460;DHT22;57920;54.796;9.430;2022-09-29T03:24:11;18.90;52.80
70460;DHT22;57920;54.796;9.430;2022-09-29T03:26:37;18.90;52.80
70460;DHT22;57920;54.796;9.430;2022-09-29T03:29:02;18.90;52.80
70460;DHT22;57920;54.796;9.430;2022-09-29T03:31:28;18.90;52.80
70460;DHT22;57920;54.796;9.430;2022-09-29T03:33:53;18.90;52.90
70460;DHT22;57920;54.796;9.430;2022-09-29T03:36:19;18.90;52.80
70460;DHT22;57920;54.796;9.430;2022-09-29T03:38:44;18.90;52.80
70460;DHT22;57920;54.796;9.430;2022-09-29T03:41:11;19.00;52.80
70460;DHT22;57920;54.796;9.430;2022-09-29T03:43:37;19.00;52.70
70460;DHT22;57920;54.796;9.430;2022-09-29T03:46:02;19.00;52.60
70460;DHT22;57920;54.796;9.430;2022-09-29T03:48:29;19.00;52.60
70460;DHT22;57920;54.796;9.430;2022-09-29T03:50:56;19.10;52.60
70460;DHT22;57920;54.796;9.430;2022-09-29T03:53:22;19.10;52.50
70460;DHT22;57920;54.796;9.430;2022-09-29T03:55:48;19.10;52.50
70460;DHT22;57920;54.796;9.430;2022-09-29T03:58:15;19.10;52.50
70460;DHT22;57920;54.796;9.430;2022-09-29T04:00:41;19.10;52.50
70460;DHT22;57920;54.796;9.430;2022-09-29T04:03:06;19.10;52.50
70460;DHT22;57920;54.796;9.430;2022-09-29T04:05:32;19.10;52.50
70460;DHT22;57920;54.796;9.430;2022-09-29T04:08:04;19.10;52.50
70460;DHT22;57920;54.796;9.430;2022-09-29T04:10:30;19.10;52.60
70460;DHT22;57920;54.796;9.430;2022-09-29T04:12:58;19.10;52.70
70460;DHT22;57920;54.796;9.430;2022-09-29T04:15:23;19.00;52.70
70460;DHT22;57920;54.796;9.430;2022-09-29T04:17:49;19.00;52.80
70460;DHT22;57920;54.796;9.430;2022-09-29T04:20:14;19.00;52.80
70460;DHT22;57920;54.796;9.430;2022-09-29T04:22:40;19.00;52.80
70460;DHT22;57920;54.796;9.430;2022-09-29T04:25:06;19.00;53.00
70460;DHT22;57920;54.796;9.430;2022-09-29T04:27:32;19.00;53.00
70460;DHT22;57920;54.796;9.430;2022-09-29T04:29:57;18.90;53.00
70460;DHT22;57920;54.796;9.430;2022-09-29T04:32:23;18.90;52.90
70460;DHT22;57920;54.796;9.430;2022-09-29T04:34:49;18.90;53.00
70460;DHT22;57920;54.796;9.430;2022-09-29T04:37:14;18.90;53.00
70460;DHT22;57920;54.796;9.430;2022-09-29T04:39:40;18.90;53.10
70460;DHT22;57920;54.796;9.430;2022-09-29T04:42:05;18.90;53.10
70460;DHT22;57920;54.796;9.430;2022-09-29T04:44:31;18.90;53.10
70460;DHT22;57920;54.796;9.430;2022-09-29T04:46:56;18.90;53.10
70460;DHT22;57920;54.796;9.430;2022-09-29T04:49:22;18.90;53.10
70460;DHT22;57920;54.796;9.430;2022-09-29T04:51:48;18.90;53.00
70460;DHT22;57920;54.796;9.430;2022-09-29T04:54:13;18.90;53.10
70460;DHT22;57920;54.796;9.430;2022-09-29T04:56:39;19.00;52.90
70460;DHT22;57920;54.796;9.430;2022-09-29T04:59:05;19.00;52.90
70460;DHT22;57920;54.796;9.430;2022-09-29T05:01:30;19.00;52.80
70460;DHT22;57920;54.796;9.430;2022-09-29T05:03:56;19.00;52.80
70460;DHT22;57920;54.796;9.430;2022-09-29T05:06:21;19.10;52.70
70460;DHT22;57920;54.796;9.430;2022-09-29T05:08:47;19.10;52.70
70460;DHT22;57920;54.796;9.430;2022-09-29T05:11:13;19.10;52.60
70460;DHT22;57920;54.796;9.430;2022-09-29T05:13:39;19.10;52.70
70460;DHT22;57920;54.796;9.430;2022-09-29T05:16:05;19.10;52.60
70460;DHT22;57920;54.796;9.430;2022-09-29T05:18:31;19.10;52.60
70460;DHT22;57920;54.796;9.430;2022-09-29T05:21:05;19.10;52.60
70460;DHT22;57920;54.796;9.430;2022-09-29T05:23:31;19.10;52.70
70460;DHT22;57920;54.796;9.430;2022-09-29T05:26:01;19.10;52.70
70460;DHT22;57920;54.796;9.430;2022-09-29T05:28:27;19.10;52.70
70460;DHT22;57920;54.796;9.430;2022-09-29T05:30:52;19.10;52.90
70460;DHT22;57920;54.796;9.430;2022-09-29T05:33:18;19.00;52.90
70460;DHT22;57920;54.796;9.430;2022-09-29T05:35:43;19.00;52.90
70460;DHT22;57920;54.796;9.430;2022-09-29T05:38:09;19.00;53.00
70460;DHT22;57920;54.796;9.430;2022-09-29T05:40:35;19.00;53.00
70460;DHT22;57920;54.796;9.430;2022-09-29T05:43:01;19.00;53.20
70460;DHT22;57920;54.796;9.430;2022-09-29T05:45:27;19.00;53.70
70460;DHT22;57920;54.796;9.430;2022-09-29T05:47:53;19.00;53.70
70460;DHT22;57920;54.796;9.430;2022-09-29T05:50:19;19.00;53.60
70460;DHT22;57920;54.796;9.430;2022-09-29T05:52:45;19.00;54.60
70460;DHT22;57920;54.796;9.430;2022-09-29T05:55:14;19.00;54.40
70460;DHT22;57920;54.796;9.430;2022-09-29T05:57:39;19.10;54.60
70460;DHT22;57920;54.796;9.430;2022-09-29T06:00:07;19.10;54.60
70460;DHT22;57920;54.796;9.430;2022-09-29T06:02:33;19.20;54.40
70460;DHT22;57920;54.796;9.430;2022-09-29T06:04:59;19.20;54.60
70460;DHT22;57920;54.796;9.430;2022-09-29T06:07:25;19.20;54.40
70460;DHT22;57920;54.796;9.430;2022-09-29T06:09:50;19.20;54.20
70460;DHT22;57920;54.796;9.430;2022-09-29T06:12:16;19.30;54.40
70460;DHT22;57920;54.796;9.430;2022-09-29T06:14:41;19.30;55.00
70460;DHT22;57920;54.796;9.430;2022-09-29T06:17:07;19.30;54.40
70460;DHT22;57920;54.796;9.430;2022-09-29T06:19:36;19.20;54.00
70460;DHT22;57920;54.796;9.430;2022-09-29T06:22:01;19.30;54.10
70460;DHT22;57920;54.796;9.430;2022-09-29T06:24:27;19.30;54.10
70460;DHT22;57920;54.796;9.430;2022-09-29T06:26:52;19.30;54.00
70460;DHT22;57920;54.796;9.430;2022-09-29T06:29:18;19.30;54.10
70460;DHT22;57920;54.796;9.430;2022-09-29T06:31:43;19.30;53.70
70460;DHT22;57920;54.796;9.430;2022-09-29T06:34:09;19.30;54.00
70460;DHT22;57920;54.796;9.430;2022-09-29T06:36:40;19.20;53.60
70460;DHT22;57920;54.796;9.430;2022-09-29T06:39:26;19.20;53.60
70460;DHT22;57920;54.796;9.430;2022-09-29T06:41:52;19.30;53.90
70460;DHT22;57920;54.796;9.430;2022-09-29T06:44:21;19.30;53.70
70460;DHT22;57920;54.796;9.430;2022-09-29T06:46:48;19.30;53.60
70460;DHT22;57920;54.796;9.430;2022-09-29T06:49:21;19.40;53.70
70460;DHT22;57920;54.796;9.430;2022-09-29T06:51:47;19.40;54.00
70460;DHT22;57920;54.796;9.430;2022-09-29T06:54:18;19.40;53.90
70460;DHT22;57920;54.796;9.430;2022-09-29T06:56:48;19.40;53.80
70460;DHT22;57920;54.796;9.430;2022-09-29T06:59:13;19.40;54.00
70460;DHT22;57920;54.796;9.430;2022-09-29T07:01:39;19.30;54.00
70460;DHT22;57920;54.796;9.430;2022-09-29T07:04:05;19.30;54.00
70460;DHT22;57920;54.796;9.430;2022-09-29T07:06:30;19.40;53.90
70460;DHT22;57920;54.796;9.430;2022-09-29T07:08:57;19.30;54.00
70460;DHT22;57920;54.796;9.430;2022-09-29T07:11:23;19.30;53.90
70460;DHT22;57920;54.796;9.430;2022-09-29T07:13:53;19.40;53.90
70460;DHT22;57920;54.796;9.430;2022-09-29T07:16:19;19.40;54.10
70460;DHT22;57920;54.796;9.430;2022-09-29T07:19:13;19.30;54.00
70460;DHT22;57920;54.796;9.430;2022-09-29T07:21:39;19.40;54.00
70460;DHT22;57920;54.796;9.430;2022-09-29T07:24:05;19.40;53.90
70460;DHT22;57920;54.796;9.430;2022-09-29T07:26:31;19.40;54.20
70460;DHT22;57920;54.796;9.430;2022-09-29T07:28:56;19.40;54.40
70460;DHT22;57920;54.796;9.430;2022-09-29T07:31:22;19.40;54.20
70460;DHT22;57920;54.796;9.430;2022-09-29T07:33:48;19.40;54.10
70460;DHT22;57920;54.796;9.430;2022-09-29T07:36:16;19.40;54.00
70460;DHT22;57920;54.796;9.430;2022-09-29T07:38:45;19.40;54.00
70460;DHT22;57920;54.796;9.430;2022-09-29T07:41:11;19.30;54.00
70460;DHT22;57920;54.796;9.430;2022-09-29T07:43:38;19.30;53.90
70460;DHT22;57920;54.796;9.430;2022-09-29T07:46:04;19.30;54.00
70460;DHT22;57920;54.796;9.430;2022-09-29T07:48:31;19.40;53.90
70460;DHT22;57920;54.796;9.430;2022-09-29T07:51:02;19.40;53.90
70460;DHT22;57920;54.796;9.430;2022-09-29T07:53:30;19.40;53.80
70460;DHT22;57920;54.796;9.430;2022-09-29T07:56:08;19.50;54.00
70460;DHT22;57920;54.796;9.430;2022-09-29T07:58:34;19.50;54.20
70460;DHT22;57920;54.796;9.430;2022-09-29T08:01:00;19.50;54.90
70460;DHT22;57920;54.796;9.430;2022-09-29T08:03:28;19.50;54.30
70460;DHT22;57920;54.796;9.430;2022-09-29T08:05:55;19.50;54.20
70460;DHT22;57920;54.796;9.430;2022-09-29T08:08:22;19.50;54.40
70460;DHT22;57920;54.796;9.430;2022-09-29T08:10:47;19.60;54.70
70460;DHT22;57920;54.796;9.430;2022-09-29T08:13:13;19.60;54.60
70460;DHT22;57920;54.796;9.430;2022-09-29T08:15:38;19.70;54.50
70460;DHT22;57920;54.796;9.430;2022-09-29T08:18:04;19.70;54.50
70460;DHT22;57920;54.796;9.430;2022-09-29T08:20:29;19.70;54.60
70460;DHT22;57920;54.796;9.430;2022-09-29T08:22:55;19.70;54.60
70460;DHT22;57920;54.796;9.430;2022-09-29T08:25:22;19.70;54.70
70460;DHT22;57920;54.796;9.430;2022-09-29T08:27:50;19.70;54.50
70460;DHT22;57920;54.796;9.430;2022-09-29T08:30:16;19.70;54.60
70460;DHT22;57920;54.796;9.430;2022-09-29T08:32:41;19.70;54.40
70460;DHT22;57920;54.796;9.430;2022-09-29T08:35:07;19.70;54.30
70460;DHT22;57920;54.796;9.430;2022-09-29T08:37:33;19.70;54.30
70460;DHT22;57920;54.796;9.430;2022-09-29T08:39:59;19.70;54.30
70460;DHT22;57920;54.796;9.430;2022-09-29T08:42:48;19.60;54.40
70460;DHT22;57920;54.796;9.430;2022-09-29T08:45:31;19.50;54.40
70460;DHT22;57920;54.796;9.430;2022-09-29T08:48:07;19.50;54.40
70460;DHT22;57920;54.796;9.430;2022-09-29T08:50:44;19.50;54.30
70460;DHT22;57920;54.796;9.430;2022-09-29T08:53:16;19.50;54.30
70460;DHT22;57920;54.796;9.430;2022-09-29T08:58:21;19.50;54.20
70460;DHT22;57920;54.796;9.430;2022-09-29T09:03:50;19.50;54.20
70460;DHT22;57920;54.796;9.430;2022-09-29T09:14:56;19.50;54.20
70460;DHT22;57920;54.796;9.430;2022-09-29T09:25:28;19.50;54.00
70460;DHT22;57920;54.796;9.430;2022-09-29T09:28:18;19.50;53.90
70460;DHT22;57920;54.796;9.430;2022-09-29T09:33:26;19.60;54.10
70460;DHT22;57920;54.796;9.430;2022-09-29T09:35:59;19.60;54.20
70460;DHT22;57920;54.796;9.430;2022-09-29T09:38:41;19.60;54.30
70460;DHT22;57920;54.796;9.430;2022-09-29T09:41:09;19.70;54.70
70460;DHT22;57920;54.796;9.430;2022-09-29T09:46:48;19.70;54.90
70460;DHT22;57920;54.796;9.430;2022-09-29T09:49:43;19.70;54.80
70460;DHT22;57920;54.796;9.430;2022-09-29T09:52:23;19.70;54.80
70460;DHT22;57920;54.796;9.430;2022-09-29T09:55:03;19.70;54.80
70460;DHT22;57920;54.796;9.430;2022-09-29T10:00:11;19.70;55.00
70460;DHT22;57920;54.796;9.430;2022-09-29T10:02:50;19.70;54.80
70460;DHT22;57920;54.796;9.430;2022-09-29T10:05:19;19.70;55.00
70460;DHT22;57920;54.796;9.430;2022-09-29T10:07:46;19.70;55.50
70460;DHT22;57920;54.796;9.430;2022-09-29T10:10:22;19.70;56.20
70460;DHT22;57920;54.796;9.430;2022-09-29T10:13:03;19.70;56.40
70460;DHT22;57920;54.796;9.430;2022-09-29T10:15:43;19.70;56.50
70460;DHT22;57920;54.796;9.430;2022-09-29T10:21:35;19.70;56.60
70460;DHT22;57920;54.796;9.430;2022-09-29T10:24:03;19.70;57.30
70460;DHT22;57920;54.796;9.430;2022-09-29T10:26:39;19.80;57.00
70460;DHT22;57920;54.796;9.430;2022-09-29T10:29:28;19.90;57.10
70460;DHT22;57920;54.796;9.430;2022-09-29T10:34:33;19.90;56.90
70460;DHT22;57920;54.796;9.430;2022-09-29T10:37:05;19.80;56.50
70460;DHT22;57920;54.796;9.430;2022-09-29T10:39:38;19.70;56.60
70460;DHT22;57920;54.796;9.430;2022-09-29T10:44:40;19.70;56.00
70460;DHT22;57920;54.796;9.430;2022-09-29T10:47:06;19.70;55.80
70460;DHT22;57920;54.796;9.430;2022-09-29T10:49:39;19.70;55.90
70460;DHT22;57920;54.796;9.430;2022-09-29T10:52:06;19.70;55.90
70460;DHT22;57920;54.796;9.430;2022-09-29T10:54:55;19.70;55.90
70460;DHT22;57920;54.796;9.430;2022-09-29T10:57:27;19.70;55.90
70460;DHT22;57920;54.796;9.430;2022-09-29T10:59:54;19.80;55.90
70460;DHT22;57920;54.796;9.430;2022-09-29T11:02:29;19.80;55.80
70460;DHT22;57920;54.796;9.430;2022-09-29T11:04:58;19.80;55.70
70460;DHT22;57920;54.796;9.430;2022-09-29T11:07:25;19.80;55.80
70460;DHT22;57920;54.796;9.430;2022-09-29T11:09:51;19.80;55.70
70460;DHT22;57920;54.796;9.430;2022-09-29T11:12:34;19.80;55.80
70460;DHT22;57920;54.796;9.430;2022-09-29T11:15:22;19.80;55.50
70460;DHT22;57920;54.796;9.430;2022-09-29T11:17:49;19.80;55.60
70460;DHT22;57920;54.796;9.430;2022-09-29T11:20:15;19.80;55.70
70460;DHT22;57920;54.796;9.430;2022-09-29T11:23:00;19.80;55.90
70460;DHT22;57920;54.796;9.430;2022-09-29T11:25:31;19.80;55.80
70460;DHT22;57920;54.796;9.430;2022-09-29T11:39:33;19.90;55.60
70460;DHT22;57920;54.796;9.430;2022-09-29T11:59:58;20.00;55.60
70460;DHT22;57920;54.796;9.430;2022-09-29T12:04:47;20.10;55.30
70460;DHT22;57920;54.796;9.430;2022-09-29T12:07:25;20.10;55.30
70460;DHT22;57920;54.796;9.430;2022-09-29T12:12:42;20.00;55.50
70460;DHT22;57920;54.796;9.430;2022-09-29T12:15:19;20.00;55.50
70460;DHT22;57920;54.796;9.430;2022-09-29T12:17:59;20.00;55.60
70460;DHT22;57920;54.796;9.430;2022-09-29T12:20:29;20.00;55.50
70460;DHT22;57920;54.796;9.430;2022-09-29T12:22:57;20.00;55.70
70460;DHT22;57920;54.796;9.430;2022-09-29T12:25:28;20.00;55.90
70460;DHT22;57920;54.796;9.430;2022-09-29T12:27:59;20.00;56.20
70460;DHT22;57920;54.796;9.430;2022-09-29T12:30:29;20.00;56.30
70460;DHT22;57920;54.796;9.430;2022-09-29T12:33:05;20.00;56.90
70460;DHT22;57920;54.796;9.430;2022-09-29T12:35:34;20.00;56.50
70460;DHT22;57920;54.796;9.430;2022-09-29T12:40:42;20.00;56.70
70460;DHT22;57920;54.796;9.430;2022-09-29T12:49:01;20.10;56.70
70460;DHT22;57920;54.796;9.430;2022-09-29T12:54:22;20.10;56.50
70460;DHT22;57920;54.796;9.430;2022-09-29T12:57:02;20.00;56.40
70460;DHT22;57920;54.796;9.430;2022-09-29T13:02:21;20.00;56.20
70460;DHT22;57920;54.796;9.430;2022-09-29T13:25:21;19.90;55.70
70460;DHT22;57920;54.796;9.430;2022-09-29T13:27:51;19.90;55.70
70460;DHT22;57920;54.796;9.430;2022-09-29T13:30:21;19.90;55.70
70460;DHT22;57920;54.796;9.430;2022-09-29T13:35:25;19.90;55.70
70460;DHT22;57920;54.796;9.430;2022-09-29T13:38:00;19.90;55.70
70460;DHT22;57920;54.796;9.430;2022-09-29T13:40:29;19.90;55.70
70460;DHT22;57920;54.796;9.430;2022-09-29T13:42:56;19.80;55.90
70460;DHT22;57920;54.796;9.430;2022-09-29T13:47:52;19.80;55.90
70460;DHT22;57920;54.796;9.430;2022-09-29T13:50:57;19.80;55.70
70460;DHT22;57920;54.796;9.430;2022-09-29T13:53:25;19.80;55.60
70460;DHT22;57920;54.796;9.430;2022-09-29T13:58:55;19.80;55.50
70460;DHT22;57920;54.796;9.430;2022-09-29T14:01:32;19.80;55.50
70460;DHT22;57920;54.796;9.430;2022-09-29T14:07:04;19.80;55.40
70460;DHT22;57920;54.796;9.430;2022-09-29T14:09:36;19.70;55.60
70460;DHT22;57920;54.796;9.430;2022-09-29T14:12:18;19.70;55.50
70460;DHT22;57920;54.796;9.430;2022-09-29T14:14:51;19.70;55.50
70460;DHT22;57920;54.796;9.430;2022-09-29T14:17:30;19.70;55.50
70460;DHT22;57920;54.796;9.430;2022-09-29T14:20:23;19.70;55.50
70460;DHT22;57920;54.796;9.430;2022-09-29T14:22:57;19.70;55.50
70460;DHT22;57920;54.796;9.430;2022-09-29T14:25:31;19.70;55.50
70460;DHT22;57920;54.796;9.430;2022-09-29T14:33:19;19.70;55.50
70460;DHT22;57920;54.796;9.430;2022-09-29T14:38:29;19.70;55.50
70460;DHT22;57920;54.796;9.430;2022-09-29T14:44:01;19.60;55.50
70460;DHT22;57920;54.796;9.430;2022-09-29T14:46:48;19.60;55.50
70460;DHT22;57920;54.796;9.430;2022-09-29T14:50:45;19.60;55.50
70460;DHT22;57920;54.796;9.430;2022-09-29T14:59:18;19.50;55.50
70460;DHT22;57920;54.796;9.430;2022-09-29T15:04:41;19.50;55.50
70460;DHT22;57920;54.796;9.430;2022-09-29T15:07:14;19.50;55.50
70460;DHT22;57920;54.796;9.430;2022-09-29T15:09:46;19.50;55.50
70460;DHT22;57920;54.796;9.430;2022-09-29T15:12:14;19.50;55.60
70460;DHT22;57920;54.796;9.430;2022-09-29T15:14:41;19.50;55.60
70460;DHT22;57920;54.796;9.430;2022-09-29T15:17:11;19.50;55.60
70460;DHT22;57920;54.796;9.430;2022-09-29T15:20:02;19.50;55.60
70460;DHT22;57920;54.796;9.430;2022-09-29T15:25:34;19.50;55.50
70460;DHT22;57920;54.796;9.430;2022-09-29T15:28:08;19.50;55.50
70460;DHT22;57920;54.796;9.430;2022-09-29T15:30:36;19.50;55.50
70460;DHT22;57920;54.796;9.430;2022-09-29T15:33:39;19.50;55.50
70460;DHT22;57920;54.796;9.430;2022-09-29T15:36:20;19.50;55.50
70460;DHT22;57920;54.796;9.430;2022-09-29T15:38:47;19.40;55.50
70460;DHT22;57920;54.796;9.430;2022-09-29T15:41:17;19.50;55.50
70460;DHT22;57920;54.796;9.430;2022-09-29T15:43:56;19.40;55.50
70460;DHT22;57920;54.796;9.430;2022-09-29T15:49:18;19.40;55.50
70460;DHT22;57920;54.796;9.430;2022-09-29T15:52:00;19.40;55.50
70460;DHT22;57920;54.796;9.430;2022-09-29T15:54:35;19.40;55.50
70460;DHT22;57920;54.796;9.430;2022-09-29T15:57:04;19.40;55.50
70460;DHT22;57920;54.796;9.430;2022-09-29T15:59:50;19.40;55.50
70460;DHT22;57920;54.796;9.430;2022-09-29T16:02:40;19.40;55.50
70460;DHT22;57920;54.796;9.430;2022-09-29T16:05:10;19.40;55.50
70460;DHT22;57920;54.796;9.430;2022-09-29T16:07:46;19.40;55.50
70460;DHT22;57920;54.796;9.430;2022-09-29T16:10:15;19.30;55.50
70460;DHT22;57920;54.796;9.430;2022-09-29T16:12:58;19.30;55.50
70460;DHT22;57920;54.796;9.430;2022-09-29T16:15:29;19.30;55.50
70460;DHT22;57920;54.796;9.430;2022-09-29T16:17:56;19.30;55.50
70460;DHT22;57920;54.796;9.430;2022-09-29T16:20:26;19.30;55.50
70460;DHT22;57920;54.796;9.430;2022-09-29T16:22:53;19.30;55.50
70460;DHT22;57920;54.796;9.430;2022-09-29T16:27:54;19.30;55.60
70460;DHT22;57920;54.796;9.430;2022-09-29T16:32:54;19.30;55.60
70460;DHT22;57920;54.796;9.430;2022-09-29T16:35:45;19.20;55.60
70460;DHT22;57920;54.796;9.430;2022-09-29T16:38:18;19.30;55.60
70460;DHT22;57920;54.796;9.430;2022-09-29T16:40:46;19.30;55.50
70460;DHT22;57920;54.796;9.430;2022-09-29T16:43:28;19.30;55.60
70460;DHT22;57920;54.796;9.430;2022-09-29T16:45:58;19.30;55.50
70460;DHT22;57920;54.796;9.430;2022-09-29T16:48:27;19.30;55.50
70460;DHT22;57920;54.796;9.430;2022-09-29T16:50:56;19.30;55.50
70460;DHT22;57920;54.796;9.430;2022-09-29T16:53:26;19.30;55.50
70460;DHT22;57920;54.796;9.430;2022-09-29T16:56:07;19.20;55.50
70460;DHT22;57920;54.796;9.430;2022-09-29T16:58:34;19.20;55.50
70460;DHT22;57920;54.796;9.430;2022-09-29T17:01:01;19.20;55.50
70460;DHT22;57920;54.796;9.430;2022-09-29T17:03:27;19.20;55.50
70460;DHT22;57920;54.796;9.430;2022-09-29T17:05:54;19.20;55.50
70460;DHT22;57920;54.796;9.430;2022-09-29T17:08:22;19.20;55.50
70460;DHT22;57920;54.796;9.430;2022-09-29T17:10:50;19.20;55.60
70460;DHT22;57920;54.796;9.430;2022-09-29T17:13:16;19.20;55.60
70460;DHT22;57920;54.796;9.430;2022-09-29T17:15:44;19.20;55.50
70460;DHT22;57920;54.796;9.430;2022-09-29T17:18:14;19.20;55.50
70460;DHT22;57920;54.796;9.430;2022-09-29T17:20:40;19.20;55.50
70460;DHT22;57920;54.796;9.430;2022-09-29T17:23:06;19.20;55.60
70460;DHT22;57920;54.796;9.430;2022-09-29T17:25:35;19.20;55.50
70460;DHT22;57920;54.796;9.430;2022-09-29T17:28:01;19.20;55.50
70460;DHT22;57920;54.796;9.430;2022-09-29T17:30:37;19.20;55.50
70460;DHT22;57920;54.796;9.430;2022-09-29T17:33:04;19.20;55.50
70460;DHT22;57920;54.796;9.430;2022-09-29T17:35:42;19.20;55.50
70460;DHT22;57920;54.796;9.430;2022-09-29T17:38:11;19.20;55.50
70460;DHT22;57920;54.796;9.430;2022-09-29T17:40:49;19.20;55.50
70460;DHT22;57920;54.796;9.430;2022-09-29T17:43:16;19.20;55.50
70460;DHT22;57920;54.796;9.430;2022-09-29T17:45:42;19.20;55.50
70460;DHT22;57920;54.796;9.430;2022-09-29T17:48:08;19.20;55.50
70460;DHT22;57920;54.796;9.430;2022-09-29T17:50:49;19.20;55.50
70460;DHT22;57920;54.796;9.430;2022-09-29T17:53:15;19.20;55.40
70460;DHT22;57920;54.796;9.430;2022-09-29T17:55:46;19.20;55.40
70460;DHT22;57920;54.796;9.430;2022-09-29T17:58:14;19.20;55.40
70460;DHT22;57920;54.796;9.430;2022-09-29T18:00:45;19.20;55.40
70460;DHT22;57920;54.796;9.430;2022-09-29T18:03:14;19.20;55.40
70460;DHT22;57920;54.796;9.430;2022-09-29T18:05:43;19.20;55.40
70460;DHT22;57920;54.796;9.430;2022-09-29T18:08:14;19.20;55.40
70460;DHT22;57920;54.796;9.430;2022-09-29T18:13:08;19.20;55.40
70460;DHT22;57920;54.796;9.430;2022-09-29T18:15:34;19.20;55.40
70460;DHT22;57920;54.796;9.430;2022-09-29T18:18:01;19.20;55.40
70460;DHT22;57920;54.796;9.430;2022-09-29T18:20:30;19.20;55.40
70460;DHT22;57920;54.796;9.430;2022-09-29T18:22:57;19.20;55.40
70460;DHT22;57920;54.796;9.430;2022-09-29T18:25:26;19.20;55.40
70460;DHT22;57920;54.796;9.430;2022-09-29T18:27:51;19.10;55.40
70460;DHT22;57920;54.796;9.430;2022-09-29T18:30:18;19.10;55.50
70460;DHT22;57920;54.796;9.430;2022-09-29T18:32:52;19.10;55.50
70460;DHT22;57920;54.796;9.430;2022-09-29T18:35:21;19.20;55.40
70460;DHT22;57920;54.796;9.430;2022-09-29T18:37:48;19.10;55.40
70460;DHT22;57920;54.796;9.430;2022-09-29T18:40:13;19.10;55.50
70460;DHT22;57920;54.796;9.430;2022-09-29T18:42:47;19.10;55.50
70460;DHT22;57920;54.796;9.430;2022-09-29T18:45:15;19.10;55.50
70460;DHT22;57920;54.796;9.430;2022-09-29T18:48:01;19.10;55.50
70460;DHT22;57920;54.796;9.430;2022-09-29T18:50:36;19.10;55.50
70460;DHT22;57920;54.796;9.430;2022-09-29T18:53:04;19.10;55.40
70460;DHT22;57920;54.796;9.430;2022-09-29T18:55:30;19.10;55.50
70460;DHT22;57920;54.796;9.430;2022-09-29T18:57:57;19.10;55.40
70460;DHT22;57920;54.796;9.430;2022-09-29T19:00:26;19.10;55.40